createdAt,value
2023-01-21T00:00:43.099Z,-0.89
2023-01-21T00:03:14.877Z,-1.06
2023-01-21T00:05:44.425Z,-1.23
2023-01-21T00:08:13.933Z,-0.72
2023-01-21T00:10:43.462Z,-1.44
2023-01-21T00:13:13.123Z,-0.90
2023-01-21T00:15:45.381Z,-0.98
2023-01-21T00:18:15.172Z,-1.12
2023-01-21T00:20:44.698Z,-0.86
2023-01-21T00:23:14.250Z,-1.38
2023-01-21T00:25:43.785Z,-1.43
2023-01-21T00:28:13.566Z,-1.23
2023-01-21T00:30:46.040Z,-0.89
2023-01-21T00:33:15.648Z,-0.65
2023-01-21T00:35:45.190Z,-0.86
2023-01-21T00:38:14.696Z,-1.16
2023-01-21T00:40:44.222Z,-1.16
2023-01-21T00:43:13.741Z,-1.21
2023-01-21T00:45:45.837Z,-0.73
2023-01-21T00:48:15.379Z,-0.60
2023-01-21T00:50:44.923Z,-0.64
2023-01-21T00:53:14.479Z,-1.22
2023-01-21T00:55:43.998Z,-0.82
2023-01-21T00:58:13.629Z,-1.19
2023-01-21T01:00:45.806Z,-0.93
2023-01-21T01:03:15.432Z,-1.38
2023-01-21T01:05:45.007Z,-1.78
2023-01-21T01:08:14.573Z,-0.76
2023-01-21T01:10:44.108Z,-0.21
2023-01-21T01:13:13.740Z,-1.29
2023-01-21T01:15:47.343Z,-0.32
2023-01-21T01:18:16.927Z,-0.19
2023-01-21T01:20:47.449Z,-0.87
2023-01-21T01:23:17.016Z,-0.90
2023-01-21T01:25:46.540Z,-0.50
2023-01-21T01:28:16.142Z,-0.61
2023-01-21T01:30:48.358Z,-0.11
2023-01-21T01:33:19.275Z,-0.93
2023-01-21T01:35:49.714Z,-0.69
2023-01-21T01:38:21.180Z,0.19
2023-01-21T01:40:52.588Z,-0.60
2023-01-21T01:43:24.246Z,-0.02
2023-01-21T01:45:57.495Z,-0.33
2023-01-21T01:48:30.690Z,-0.70
2023-01-21T01:51:04.047Z,0.51
2023-01-21T01:53:34.789Z,0.08
2023-01-21T01:56:04.823Z,0.14
2023-01-21T01:58:35.108Z,-0.01
2023-01-21T02:01:07.403Z,-0.07
2023-01-21T02:03:50.883Z,-0.50
2023-01-21T02:06:21.697Z,-0.30
2023-01-21T02:08:51.312Z,0.54
2023-01-21T02:11:22.774Z,0.38
2023-01-21T02:13:56.241Z,-0.29
2023-01-21T02:16:54.539Z,0.50
2023-01-21T02:19:58.901Z,0.18
2023-01-21T02:22:33.553Z,0.49
2023-01-21T02:25:40.661Z,0.17
2023-01-21T02:28:32.520Z,0.18
2023-01-21T02:31:35.068Z,-0.01
2023-01-21T02:34:16.900Z,0.00
2023-01-21T02:37:07.918Z,0.09
2023-01-21T02:39:53.983Z,0.62
2023-01-21T02:42:27.449Z,0.18
2023-01-21T02:45:03.740Z,0.05
2023-01-21T02:47:39.058Z,0.20
2023-01-21T02:50:18.831Z,-0.08
2023-01-21T02:52:48.513Z,0.43
2023-01-21T02:55:19.715Z,0.03
2023-01-21T02:57:53.585Z,-0.19
2023-01-21T03:00:28.207Z,-0.09
2023-01-21T03:03:16.047Z,0.30
2023-01-21T03:06:16.241Z,-0.42
2023-01-21T03:08:54.050Z,-0.03
2023-01-21T03:11:25.410Z,-0.42
2023-01-21T03:14:10.044Z,-0.46
2023-01-21T03:17:05.280Z,-0.30
2023-01-21T03:19:39.610Z,0.47
2023-01-21T03:22:15.159Z,0.46
2023-01-21T03:24:48.421Z,0.41
2023-01-21T03:27:23.497Z,0.79
2023-01-21T03:29:57.452Z,0.67
2023-01-21T03:32:30.572Z,0.98
2023-01-21T03:35:02.611Z,0.69
2023-01-21T03:37:40.638Z,0.79
2023-01-21T03:40:22.804Z,0.40
2023-01-21T03:42:56.319Z,0.11
2023-01-21T03:45:36.284Z,0.41
2023-01-21T03:48:16.344Z,0.58
2023-01-21T03:50:51.193Z,0.16
2023-01-21T03:53:23.534Z,0.38
2023-01-21T03:55:53.864Z,0.61
2023-01-21T03:58:23.399Z,0.43
2023-01-21T04:00:52.934Z,0.42
2023-01-21T04:03:22.462Z,0.64
2023-01-21T04:05:52.004Z,0.62
2023-01-21T04:08:24.094Z,0.32
2023-01-21T04:10:53.598Z,0.52
2023-01-21T04:13:23.147Z,0.25
2023-01-21T04:15:52.698Z,0.25
2023-01-21T04:18:22.225Z,0.23
2023-01-21T04:20:51.771Z,0.09
2023-01-21T04:23:24.056Z,-0.10
2023-01-21T04:25:54.031Z,-0.28
2023-01-21T04:28:23.656Z,-0.46
2023-01-21T04:30:53.266Z,-0.15
2023-01-21T04:33:22.784Z,0.06
2023-01-21T04:35:52.333Z,-0.08
2023-01-21T04:38:24.413Z,-0.23
2023-01-21T04:40:54.013Z,-0.26
2023-01-21T04:43:23.647Z,-0.01
2023-01-21T04:45:53.204Z,0.02
2023-01-21T04:48:22.798Z,-0.11
2023-01-21T04:50:52.433Z,-0.02
2023-01-21T04:53:24.535Z,-0.15
2023-01-21T04:55:54.830Z,-0.36
2023-01-21T04:58:24.436Z,0.19
2023-01-21T05:00:55.116Z,-0.05
2023-01-21T05:03:24.737Z,-0.24
2023-01-21T05:05:54.507Z,-0.19
2023-01-21T05:08:26.689Z,-0.29
2023-01-21T05:10:56.199Z,-0.22
2023-01-21T05:13:25.755Z,-0.37
2023-01-21T05:15:55.406Z,-0.01
2023-01-21T05:18:25.018Z,-0.25
2023-01-21T05:20:55.648Z,0.15
2023-01-21T05:23:27.756Z,0.12
2023-01-21T05:25:57.341Z,0.42
2023-01-21T05:28:27.061Z,0.13
2023-01-21T05:30:56.687Z,0.12
2023-01-21T05:33:26.377Z,-0.17
2023-01-21T05:35:55.913Z,-0.05
2023-01-21T05:38:28.199Z,-0.09
2023-01-21T05:41:01.215Z,-0.15
2023-01-21T05:43:31.378Z,-0.36
2023-01-21T05:46:01.023Z,-0.62
2023-01-21T05:48:32.042Z,-0.82
2023-01-21T05:51:01.626Z,-0.30
2023-01-21T05:53:33.723Z,-0.88
2023-01-21T05:56:03.313Z,-0.85
2023-01-21T05:58:32.958Z,-0.78
2023-01-21T06:01:02.578Z,-1.35
2023-01-21T06:03:32.403Z,-1.39
2023-01-21T06:06:01.968Z,-1.23
2023-01-21T06:08:34.131Z,-1.33
2023-01-21T06:11:03.861Z,-1.13
2023-01-21T06:13:33.931Z,-1.30
2023-01-21T06:16:03.660Z,-1.15
2023-01-21T06:18:33.337Z,-1.02
2023-01-21T06:21:03.524Z,-0.64
2023-01-21T06:23:35.806Z,-0.69
2023-01-21T06:26:06.179Z,-0.61
2023-01-21T06:28:35.770Z,-1.29
2023-01-21T06:31:05.472Z,-1.18
2023-01-21T06:33:35.102Z,-1.58
2023-01-21T06:36:04.653Z,-1.73
2023-01-21T06:38:37.554Z,-1.69
2023-01-21T06:41:07.487Z,-1.94
2023-01-21T06:43:37.037Z,-1.93
2023-01-21T06:46:06.799Z,-1.74
2023-01-21T06:48:36.624Z,-1.91
2023-01-21T06:51:06.564Z,-1.92
2023-01-21T06:53:38.690Z,-1.97
2023-01-21T06:56:08.626Z,-1.98
2023-01-21T06:58:38.171Z,-2.20
2023-01-21T07:01:08.098Z,-2.16
2023-01-21T07:03:37.668Z,-2.32
2023-01-21T07:06:07.576Z,-2.46
2023-01-21T07:08:39.793Z,-2.46
2023-01-21T07:11:09.306Z,-2.29
2023-01-21T07:13:38.909Z,-2.32
2023-01-21T07:16:09.809Z,-2.02
2023-01-21T07:18:39.362Z,-1.61
2023-01-21T07:21:08.881Z,-1.65
2023-01-21T07:23:41.250Z,-1.56
2023-01-21T07:26:10.882Z,-0.84
2023-01-21T07:28:40.484Z,-0.72
2023-01-21T07:31:10.130Z,-1.11
2023-01-21T07:33:39.738Z,-0.47
2023-01-21T07:36:10.797Z,-0.53
2023-01-21T07:38:43.447Z,-0.77
2023-01-21T07:41:13.157Z,-0.40
2023-01-21T07:43:42.673Z,-0.11
2023-01-21T07:46:12.318Z,-0.31
2023-01-21T07:48:41.830Z,0.01
2023-01-21T07:51:11.462Z,-0.16
2023-01-21T07:53:43.621Z,-0.65
2023-01-21T07:56:13.391Z,-0.49
2023-01-21T07:58:43.174Z,-0.28
2023-01-21T08:01:13.082Z,-0.02
2023-01-21T08:03:42.784Z,0.07
2023-01-21T08:06:12.388Z,0.12
2023-01-21T08:08:44.549Z,-0.04
2023-01-21T08:11:14.238Z,0.16
2023-01-21T08:13:44.673Z,-0.15
2023-01-21T08:16:14.335Z,-0.45
2023-01-21T08:18:44.260Z,-0.52
2023-01-21T08:21:13.888Z,-0.40
2023-01-21T08:23:46.139Z,-0.88
2023-01-21T08:26:15.713Z,-0.82
2023-01-21T08:28:45.225Z,-0.62
2023-01-21T08:31:16.371Z,-0.53
2023-01-21T08:33:45.974Z,-0.83
2023-01-21T08:36:15.690Z,-0.65
2023-01-21T08:38:48.817Z,-0.69
2023-01-21T08:41:18.406Z,-0.65
2023-01-21T08:43:48.011Z,-0.45
2023-01-21T08:46:17.547Z,-0.47
2023-01-21T08:48:47.071Z,-0.33
2023-01-21T08:51:16.685Z,-0.44
2023-01-21T08:53:51.547Z,-0.58
2023-01-21T08:56:21.552Z,-0.32
2023-01-21T08:58:51.153Z,-0.68
2023-01-21T09:01:20.870Z,-0.43
2023-01-21T09:03:50.520Z,-0.43
2023-01-21T09:06:20.061Z,-0.43
2023-01-21T09:08:52.250Z,-0.56
2023-01-21T09:11:21.938Z,-0.50
2023-01-21T09:13:51.505Z,-0.31
2023-01-21T09:16:23.073Z,-0.01
2023-01-21T09:18:52.764Z,-0.29
2023-01-21T09:21:22.443Z,-0.11
2023-01-21T09:23:54.663Z,-0.06
2023-01-21T09:26:25.663Z,0.11
2023-01-21T09:28:56.902Z,0.21
2023-01-21T09:31:27.995Z,0.09
2023-01-21T09:34:00.668Z,-0.21
2023-01-21T09:36:32.343Z,-0.16
2023-01-21T09:39:07.243Z,0.01
2023-01-21T09:41:39.075Z,0.03
2023-01-21T09:44:16.950Z,-0.24
2023-01-21T09:46:54.481Z,-0.14
2023-01-21T09:49:30.524Z,-0.19
2023-01-21T09:52:09.047Z,0.14
2023-01-21T09:54:42.127Z,0.15
2023-01-21T09:57:33.973Z,0.09
2023-01-21T10:00:19.052Z,0.09
2023-01-21T10:02:57.072Z,-0.05
2023-01-21T10:05:50.625Z,-0.18
2023-01-21T10:08:28.476Z,-0.17
2023-01-21T10:11:08.469Z,-0.05
2023-01-21T10:13:50.969Z,0.32
2023-01-21T10:16:32.055Z,0.20
2023-01-21T10:19:04.788Z,0.12
2023-01-21T10:21:38.955Z,0.26
2023-01-21T10:24:16.986Z,0.24
2023-01-21T10:26:50.896Z,0.78
2023-01-21T10:29:23.590Z,0.38
2023-01-21T10:31:59.496Z,0.24
2023-01-21T10:34:33.104Z,0.29
2023-01-21T10:37:14.188Z,0.04
2023-01-21T10:39:52.943Z,-0.12
2023-01-21T10:42:53.942Z,0.44
2023-01-21T10:45:32.509Z,0.73
2023-01-21T10:48:08.827Z,0.84
2023-01-21T10:50:48.614Z,0.82
2023-01-21T10:53:28.921Z,0.69
2023-01-21T10:56:09.435Z,1.18
2023-01-21T10:58:47.701Z,0.93
2023-01-21T11:01:23.613Z,1.04
2023-01-21T11:03:55.878Z,1.01
2023-01-21T11:06:27.220Z,1.05
2023-01-21T11:09:02.704Z,0.86
2023-01-21T11:11:34.723Z,1.06
2023-01-21T11:14:06.999Z,1.05
2023-01-21T11:16:39.609Z,0.81
2023-01-21T11:19:10.463Z,0.94
2023-01-21T11:21:40.522Z,1.40
2023-01-21T11:24:23.821Z,1.28
2023-01-21T11:26:55.129Z,1.19
2023-01-21T11:29:28.298Z,1.16
2023-01-21T11:32:05.239Z,1.48
2023-01-21T11:34:35.853Z,1.88
2023-01-21T11:37:07.166Z,1.75
2023-01-21T11:39:41.687Z,1.40
2023-01-21T11:42:17.914Z,1.88
2023-01-21T11:44:57.573Z,1.56
2023-01-21T11:47:40.557Z,1.28
2023-01-21T11:50:15.592Z,1.25
2023-01-21T11:52:45.622Z,1.32
2023-01-21T11:55:24.198Z,1.48
2023-01-21T11:57:57.153Z,1.58
2023-01-21T12:00:30.652Z,1.66
2023-01-21T12:03:02.581Z,1.66
2023-01-21T12:05:36.193Z,1.25
2023-01-21T12:08:07.609Z,1.41
2023-01-21T12:10:41.267Z,1.53
2023-01-21T12:13:20.154Z,1.41
2023-01-21T12:16:25.322Z,1.11
2023-01-21T12:19:17.839Z,1.24
2023-01-21T12:22:06.286Z,0.98
2023-01-21T12:24:50.760Z,1.25
2023-01-21T12:27:28.897Z,1.69
2023-01-21T12:30:10.582Z,1.95
2023-01-21T12:32:48.477Z,1.62
2023-01-21T12:35:26.030Z,1.50
2023-01-21T12:38:01.778Z,1.96
2023-01-21T12:40:36.408Z,1.36
2023-01-21T12:43:19.139Z,1.59
2023-01-21T12:45:52.016Z,1.81
2023-01-21T12:48:31.012Z,1.74
2023-01-21T12:51:05.310Z,1.72
2023-01-21T12:53:41.910Z,1.72
2023-01-21T12:56:23.189Z,1.63
2023-01-21T12:58:57.731Z,1.45
2023-01-21T13:01:47.165Z,1.69
2023-01-21T13:04:40.035Z,2.04
2023-01-21T13:07:17.583Z,1.77
2023-01-21T13:09:52.227Z,1.65
2023-01-21T13:12:24.335Z,2.24
2023-01-21T13:15:02.479Z,2.21
2023-01-21T13:17:35.282Z,1.82
2023-01-21T13:20:17.153Z,2.11
2023-01-21T13:22:55.103Z,2.03
2023-01-21T13:25:35.041Z,2.09
2023-01-21T13:28:13.801Z,2.19
2023-01-21T13:30:48.374Z,1.96
2023-01-21T13:33:27.121Z,1.65
2023-01-21T13:36:08.821Z,1.69
2023-01-21T13:38:47.882Z,1.76
2023-01-21T13:41:29.399Z,1.69
2023-01-21T13:44:16.599Z,1.82
2023-01-21T13:46:59.015Z,1.53
2023-01-21T13:50:01.613Z,1.49
2023-01-21T13:52:45.073Z,1.35
2023-01-21T13:55:36.150Z,1.15
2023-01-21T13:58:08.057Z,1.20
2023-01-21T14:00:44.305Z,1.23
2023-01-21T14:03:24.470Z,1.53
2023-01-21T14:05:59.485Z,1.18
2023-01-21T14:08:36.397Z,1.24
2023-01-21T14:11:12.775Z,1.39
2023-01-21T14:14:15.788Z,1.50
2023-01-21T14:17:13.329Z,1.51
2023-01-21T14:20:19.055Z,1.60
2023-01-21T14:23:03.488Z,1.28
2023-01-21T14:25:52.039Z,1.60
2023-01-21T14:28:30.170Z,1.72
2023-01-21T14:31:07.482Z,1.56
2023-01-21T14:33:44.390Z,1.50
2023-01-21T14:36:18.860Z,1.53
2023-01-21T14:39:00.094Z,1.68
2023-01-21T14:42:03.188Z,1.63
2023-01-21T14:44:42.580Z,1.45
2023-01-21T14:47:23.035Z,1.73
2023-01-21T14:49:54.512Z,1.63
2023-01-21T14:52:31.747Z,1.72
2023-01-21T14:55:02.310Z,1.65
2023-01-21T14:57:36.360Z,1.71
2023-01-21T15:00:15.438Z,1.93
2023-01-21T15:02:48.136Z,1.82
2023-01-21T15:05:21.278Z,1.91
2023-01-21T15:08:01.694Z,1.90
2023-01-21T15:10:34.879Z,1.92
2023-01-21T15:13:20.238Z,1.75
2023-01-21T15:16:07.178Z,1.94
2023-01-21T15:18:40.802Z,1.89
2023-01-21T15:21:39.025Z,1.61
2023-01-21T15:24:26.813Z,1.53
2023-01-21T15:27:18.659Z,1.70
2023-01-21T15:30:28.225Z,1.75
2023-01-21T15:33:00.799Z,1.78
2023-01-21T15:35:36.116Z,1.74
2023-01-21T15:38:14.589Z,2.10
2023-01-21T15:40:49.143Z,2.14
2023-01-21T15:43:25.879Z,2.45
2023-01-21T15:46:09.122Z,2.02
2023-01-21T15:49:11.691Z,2.51
2023-01-21T15:51:50.294Z,2.16
2023-01-21T15:54:31.752Z,2.42
2023-01-21T15:57:16.329Z,2.13
2023-01-21T16:00:05.974Z,2.13
2023-01-21T16:02:53.329Z,1.98
2023-01-21T16:05:33.835Z,2.00
2023-01-21T16:08:14.623Z,1.90
2023-01-21T16:10:53.424Z,1.74
2023-01-21T16:13:32.222Z,1.74
2023-01-21T16:16:14.711Z,1.89
2023-01-21T16:18:55.252Z,1.79
2023-01-21T16:21:30.166Z,1.72
2023-01-21T16:24:04.362Z,1.93
2023-01-21T16:26:34.751Z,1.81
2023-01-21T16:29:04.287Z,1.53
2023-01-21T16:31:46.489Z,1.60
2023-01-21T16:34:26.897Z,1.78
2023-01-21T16:36:56.575Z,1.71
2023-01-21T16:39:27.107Z,1.42
2023-01-21T16:42:04.416Z,1.53
2023-01-21T16:44:35.931Z,1.69
2023-01-21T16:47:06.256Z,1.56
2023-01-21T16:49:38.503Z,1.43
2023-01-21T16:52:08.066Z,1.37
2023-01-21T16:54:38.684Z,1.27
2023-01-21T16:57:25.749Z,1.23
2023-01-21T16:59:57.975Z,1.24
2023-01-21T17:02:31.531Z,1.20
2023-01-21T17:05:06.015Z,1.11
2023-01-21T17:07:40.886Z,1.15
2023-01-21T17:10:21.788Z,1.19
2023-01-21T17:12:54.594Z,1.06
2023-01-21T17:15:31.545Z,1.03
2023-01-21T17:18:03.383Z,1.05
2023-01-21T17:20:45.464Z,1.25
2023-01-21T17:23:20.556Z,1.20
2023-01-21T17:25:55.992Z,1.29
2023-01-21T17:28:32.528Z,1.21
2023-01-21T17:31:14.334Z,1.29
2023-01-21T17:33:47.530Z,1.16
2023-01-21T17:36:34.059Z,1.25
2023-01-21T17:39:03.820Z,1.26
2023-01-21T17:41:37.605Z,1.15
2023-01-21T17:44:17.823Z,1.09
2023-01-21T17:46:47.968Z,1.07
2023-01-21T17:49:21.025Z,1.14
2023-01-21T17:51:56.706Z,1.00
2023-01-21T17:54:29.442Z,1.02
2023-01-21T17:57:00.628Z,0.98
2023-01-21T17:59:38.211Z,1.02
2023-01-21T18:02:12.980Z,0.93
2023-01-21T18:04:42.949Z,0.97
2023-01-21T18:07:25.552Z,0.97
2023-01-21T18:09:57.186Z,0.91
2023-01-21T18:12:26.734Z,0.94
2023-01-21T18:14:56.335Z,1.00
2023-01-21T18:17:27.677Z,0.99
2023-01-21T18:19:58.100Z,0.92
2023-01-21T18:22:32.089Z,1.10
2023-01-21T18:25:03.091Z,1.09
2023-01-21T18:27:33.543Z,1.16
2023-01-21T18:30:03.115Z,1.33
2023-01-21T18:32:32.804Z,1.37
2023-01-21T18:35:02.459Z,1.39
2023-01-21T18:37:34.913Z,1.34
2023-01-21T18:40:05.794Z,1.38
2023-01-21T18:42:36.539Z,1.52
2023-01-21T18:45:06.781Z,1.51
2023-01-21T18:47:36.308Z,1.64
2023-01-21T18:50:06.001Z,1.53
2023-01-21T18:52:38.213Z,1.41
2023-01-21T18:55:09.412Z,1.44
2023-01-21T18:57:39.462Z,1.31
2023-01-21T19:00:19.285Z,1.51
2023-01-21T19:02:49.214Z,1.31
2023-01-21T19:05:19.463Z,1.25
2023-01-21T19:07:51.679Z,1.29
2023-01-21T19:10:23.151Z,1.16
2023-01-21T19:12:55.793Z,1.11
2023-01-21T19:15:27.793Z,0.93
2023-01-21T19:17:58.045Z,0.96
2023-01-21T19:20:29.738Z,0.83
2023-01-21T19:23:01.933Z,0.98
2023-01-21T19:25:31.728Z,0.78
2023-01-21T19:28:02.149Z,0.96
2023-01-21T19:30:33.519Z,0.92
2023-01-21T19:33:03.465Z,0.91
2023-01-21T19:35:36.284Z,0.86
2023-01-21T19:38:13.861Z,0.87
2023-01-21T19:40:43.999Z,1.01
2023-01-21T19:43:15.872Z,0.96
2023-01-21T19:45:46.269Z,0.84
2023-01-21T19:48:18.229Z,0.77
2023-01-21T19:50:47.884Z,0.81
2023-01-21T19:53:23.260Z,0.92
2023-01-21T19:55:53.037Z,0.74
2023-01-21T19:58:25.134Z,0.86
2023-01-21T20:00:56.183Z,0.67
2023-01-21T20:03:30.272Z,0.81
2023-01-21T20:06:03.731Z,0.74
2023-01-21T20:08:35.976Z,0.75
2023-01-21T20:11:05.578Z,0.68
2023-01-21T20:13:36.885Z,0.67
2023-01-21T20:16:17.300Z,0.74
2023-01-21T20:18:49.364Z,0.53
2023-01-21T20:21:19.115Z,0.56
2023-01-21T20:23:51.234Z,0.55
2023-01-21T20:26:25.750Z,0.58
2023-01-21T20:28:55.338Z,0.47
2023-01-21T20:31:24.983Z,0.53
2023-01-21T20:33:54.553Z,0.72
2023-01-21T20:36:26.674Z,0.82
2023-01-21T20:38:59.673Z,0.72
2023-01-21T20:41:29.358Z,0.72
2023-01-21T20:43:58.877Z,0.69
2023-01-21T20:46:30.542Z,0.56
2023-01-21T20:49:02.146Z,0.77
2023-01-21T20:51:31.682Z,0.49
2023-01-21T20:54:03.992Z,0.71
2023-01-21T20:56:34.446Z,0.66
2023-01-21T20:59:04.357Z,0.71
2023-01-21T21:01:34.970Z,0.64
2023-01-21T21:04:04.937Z,0.65
2023-01-21T21:06:34.495Z,0.57
2023-01-21T21:09:06.637Z,0.53
2023-01-21T21:11:36.180Z,0.54
2023-01-21T21:14:05.781Z,0.63
2023-01-21T21:16:36.758Z,0.56
2023-01-21T21:19:06.409Z,0.60
2023-01-21T21:21:35.925Z,0.69
2023-01-21T21:24:08.932Z,0.57
2023-01-21T21:26:40.875Z,0.54
2023-01-21T21:29:15.437Z,0.53
2023-01-21T21:31:45.362Z,0.61
2023-01-21T21:34:15.112Z,0.67
2023-01-21T21:36:44.778Z,0.67
2023-01-21T21:39:19.400Z,0.59
2023-01-21T21:42:01.765Z,0.55
2023-01-21T21:44:31.331Z,0.69
2023-01-21T21:47:13.390Z,0.73
2023-01-21T21:49:42.966Z,0.31
2023-01-21T21:52:17.299Z,0.63
2023-01-21T21:54:49.410Z,0.61
2023-01-21T21:57:18.974Z,0.55
2023-01-21T21:59:48.553Z,0.44
2023-01-21T22:02:18.116Z,0.58
2023-01-21T22:04:47.648Z,0.46
2023-01-21T22:07:17.570Z,0.55
2023-01-21T22:09:49.653Z,0.68
2023-01-21T22:12:19.528Z,0.63
2023-01-21T22:14:49.041Z,0.53
2023-01-21T22:17:18.551Z,0.44
2023-01-21T22:19:48.070Z,0.57
2023-01-21T22:22:17.604Z,0.68
2023-01-21T22:24:49.701Z,0.79
2023-01-21T22:27:19.271Z,0.45
2023-01-21T22:29:48.848Z,0.60
2023-01-21T22:32:18.674Z,0.55
2023-01-21T22:34:48.194Z,0.78
2023-01-21T22:37:17.697Z,0.74
2023-01-21T22:39:49.806Z,0.74
2023-01-21T22:42:19.495Z,0.64
2023-01-21T22:44:49.045Z,0.34
2023-01-21T22:47:18.655Z,0.72
2023-01-21T22:49:49.312Z,0.84
2023-01-21T22:52:18.842Z,0.66
2023-01-21T22:54:50.934Z,0.78
2023-01-21T22:57:20.684Z,0.47
2023-01-21T22:59:50.188Z,0.57
2023-01-21T23:02:19.755Z,0.63
2023-01-21T23:04:49.335Z,0.77
2023-01-21T23:07:18.876Z,0.59
2023-01-21T23:09:50.959Z,0.54
2023-01-21T23:12:21.267Z,0.61
2023-01-21T23:14:50.821Z,0.60
2023-01-21T23:17:20.392Z,0.77
2023-01-21T23:19:49.919Z,0.81
2023-01-21T23:22:19.477Z,0.89
2023-01-21T23:24:51.555Z,0.78
2023-01-21T23:27:21.060Z,0.78
2023-01-21T23:29:50.608Z,1.01
2023-01-21T23:32:20.140Z,0.58
2023-01-21T23:34:49.652Z,0.73
2023-01-21T23:37:19.178Z,0.36
2023-01-21T23:39:51.506Z,0.46
2023-01-21T23:42:22.487Z,0.32
2023-01-21T23:44:52.066Z,0.57
2023-01-21T23:47:21.611Z,0.31
2023-01-21T23:49:51.243Z,0.58
2023-01-21T23:52:20.777Z,0.59
2023-01-21T23:54:52.883Z,0.70
2023-01-21T23:57:22.424Z,0.75
2023-01-21T23:59:52.165Z,0.79
